CheckWX is a tool to help pilots better visualize weather data.  It is not intended as a substitute for an official pre-flight weather briefing.

10:36:41 UTC

KHKS TAF
Hawkins Field Airport
Jackson, Mississippi, USA
KHKS 140601Z 1406/1506 VRB03KT P6SM SCT025 BKN050 FM141000 00000KT 6SM BR OVC050 FM141400 03003KT P6SM BKN050 FM142200 11004KT P6SM VCSH OVC050

Oct-14@
06:00 UTC

Oct-14 @ 06:00 UTC

Oct-14@
10:00 UTC

Oct-14 @ 10:00 UTC

KHKS 140601Z 1406/1506 VRB03KT P6SM SCT025 BKN050

Expired

Wind
  • Variable at 3 KTS
Cloud Levels
  • Scattered at 2,500' AGL
  • Broken at 5,000' AGL

Oct-14@
10:00 UTC

Oct-14 @ 10:00 UTC

Oct-14@
14:00 UTC

Oct-14 @ 14:00 UTC

FM141000 00000KT 6SM BR OVC050

From

From Standard forecast or significant change

Conditions
Mist
Cloud Levels
  • Overcast at 5,000' AGL

Oct-14@
14:00 UTC

Oct-14 @ 14:00 UTC

Oct-14@
22:00 UTC

Oct-14 @ 22:00 UTC

FM141400 03003KT P6SM BKN050

From

From Standard forecast or significant change

Wind
  • 030° at 3 KTS
Cloud Levels
  • Broken at 5,000' AGL

Oct-14@
22:00 UTC

Oct-14 @ 22:00 UTC

Oct-15@
06:00 UTC

Oct-15 @ 06:00 UTC

FM142200 11004KT P6SM VCSH OVC050

From

From Standard forecast or significant change

Wind
  • 110° at 4 KTS
Cloud Levels
  • Overcast at 5,000' AGL